Time;durP1;ratioP1;P1;durP2;ratioP2;P2;SDS_P1;SDS_P2;PMS_P1;PMS_P2;Temp;Humidity;BMP_temperature;BMP_pressure;BME280_temperature;BME280_humidity;BME280_pressure;Samples;Min_cycle;Max_cycle;Signal;HPM_P1;HPM_P2
2021/09/12 00:00:08;;;;;;;0.20;0.20;;;;;;;2.65;64.86;97761.00;6184212;23;20021;-66
2021/09/12 00:02:38;;;;;;;0.20;0.20;;;;;;;2.66;64.89;97765.38;6182481;23;20092;-67
2021/09/12 00:05:06;;;;;;;0.20;0.20;;;;;;;2.71;64.88;97762.03;6182433;23;20001;-67
2021/09/12 00:07:33;;;;;;;0.20;0.20;;;;;;;2.76;64.84;97770.38;6157846;23;20358;-67
2021/09/12 00:10:01;;;;;;;0.20;0.20;;;;;;;2.80;64.71;97760.78;6182583;23;20022;-66
2021/09/12 00:12:28;;;;;;;0.20;0.20;;;;;;;2.86;64.62;97753.69;6182568;23;20434;-66
2021/09/12 00:14:55;;;;;;;0.20;0.20;;;;;;;2.93;64.48;97746.34;6184225;23;20053;-66
2021/09/12 00:17:23;;;;;;;0.20;0.20;;;;;;;3.02;64.26;97752.38;6182422;23;20013;-66
2021/09/12 00:19:52;;;;;;;0.20;0.20;;;;;;;3.13;64.20;97757.16;6182631;23;20009;-66
2021/09/12 00:22:20;;;;;;;0.20;0.20;;;;;;;3.20;64.17;97754.44;6184191;23;20020;-66
2021/09/12 00:24:48;;;;;;;0.22;0.22;;;;;;;3.29;64.10;97759.41;6186346;23;20494;-67
2021/09/12 00:27:16;;;;;;;0.20;0.20;;;;;;;3.39;63.83;97755.41;6158964;23;20017;-65
2021/09/12 00:29:43;;;;;;;0.20;0.20;;;;;;;3.48;63.85;97763.09;6184381;23;20016;-66
2021/09/12 00:32:10;;;;;;;0.20;0.20;;;;;;;3.57;63.74;97743.84;6184264;23;20465;-66
2021/09/12 00:34:39;;;;;;;0.40;0.40;;;;;;;3.62;63.63;97741.31;6159235;23;20144;-65
2021/09/12 00:37:07;;;;;;;0.20;0.20;;;;;;;3.69;63.73;97733.97;6184139;23;20040;-65
2021/09/12 00:39:36;;;;;;;0.20;0.20;;;;;;;3.73;63.68;97721.63;6184053;23;20013;-65
2021/09/12 00:42:03;;;;;;;0.20;0.20;;;;;;;3.78;63.62;97727.22;6184179;23;20021;-64
2021/09/12 00:44:31;;;;;;;0.20;0.20;;;;;;;3.82;63.69;97731.16;6159145;23;20096;-65
2021/09/12 00:47:08;;;;;;;0.20;0.20;;;;;;;3.88;63.62;97739.50;6159194;23;20446;-65
2021/09/12 00:49:35;;;;;;;0.20;0.20;;;;;;;3.88;63.65;97723.22;6185749;23;20036;-65
2021/09/12 00:52:07;;;;;;;1.65;0.63;;;;;;;3.88;63.66;97725.94;6159099;23;20009;-65
2021/09/12 00:54:36;;;;;;;0.20;0.20;;;;;;;3.91;63.80;97734.47;6184349;23;20012;-65
2021/09/12 00:57:06;;;;;;;0.20;0.20;;;;;;;3.98;63.72;97727.09;6159107;23;20017;-64
2021/09/12 00:59:37;;;;;;;0.30;0.30;;;;;;;4.04;63.55;97718.06;6158155;23;20013;-65
2021/09/12 01:02:06;;;;;;;0.20;0.20;;;;;;;4.12;63.45;97725.16;6159160;23;20025;-65
2021/09/12 01:04:34;;;;;;;0.20;0.20;;;;;;;4.16;63.43;97720.91;6183494;23;20009;-65
2021/09/12 01:07:01;;;;;;;3.97;0.95;;;;;;;4.18;63.49;97709.81;6183987;23;20037;-65
2021/09/12 01:09:29;;;;;;;0.20;0.20;;;;;;;4.23;63.49;97706.47;6159269;23;20008;-66
2021/09/12 01:12:00;;;;;;;0.20;0.20;;;;;;;4.24;63.59;97710.81;6159429;23;20017;-66
2021/09/12 01:14:30;;;;;;;0.20;0.20;;;;;;;4.25;63.53;97702.44;6159079;23;20009;-67
2021/09/12 01:16:57;;;;;;;0.20;0.20;;;;;;;4.27;63.52;97699.50;6183607;23;20013;-67
2021/09/12 01:19:24;;;;;;;0.20;0.20;;;;;;;4.30;63.42;97699.06;6183823;23;20521;-66
2021/09/12 01:21:58;;;;;;;8.48;1.10;;;;;;;4.33;63.50;97702.19;6183800;23;20020;-67
2021/09/12 01:24:26;;;;;;;0.20;0.20;;;;;;;4.37;63.42;97699.84;6185500;23;20346;-66
2021/09/12 01:26:55;;;;;;;0.10;0.10;;;;;;;4.40;63.57;97702.13;6159024;23;20017;-69
2021/09/12 01:29:23;;;;;;;0.35;0.35;;;;;;;4.44;63.55;97692.47;6183309;23;20013;-66
2021/09/12 01:31:51;;;;;;;0.20;0.20;;;;;;;4.47;63.52;97683.03;6183527;23;20013;-68
2021/09/12 01:34:18;;;;;;;0.30;0.30;;;;;;;4.50;63.44;97688.03;6185641;23;20009;-68
2021/09/12 01:36:46;;;;;;;0.10;0.10;;;;;;;4.52;63.35;97692.19;6158608;23;20017;-68
2021/09/12 01:39:15;;;;;;;0.45;0.45;;;;;;;4.57;63.28;97691.53;6183751;23;20315;-67
2021/09/12 01:41:42;;;;;;;0.30;0.30;;;;;;;4.63;63.43;97698.78;6158626;23;20064;-70
2021/09/12 01:44:11;;;;;;;0.30;0.30;;;;;;;4.68;63.20;97698.09;6158323;23;20013;-67
2021/09/12 01:46:46;;;;;;;0.30;0.30;;;;;;;4.72;63.28;97691.97;6183113;23;20066;-66
2021/09/12 01:49:15;;;;;;;1.05;1.05;;;;;;;4.79;63.15;97682.94;6185653;23;20017;-66
2021/09/12 01:51:43;;;;;;;0.28;0.28;;;;;;;4.85;63.27;97680.13;6158645;23;20032;-66
2021/09/12 01:54:11;;;;;;;2.30;0.25;;;;;;;4.92;63.20;97674.66;6183381;23;20009;-70
2021/09/12 01:56:39;;;;;;;0.10;0.10;;;;;;;4.98;63.14;97681.06;6158371;23;20378;-67
2021/09/12 01:59:06;;;;;;;0.20;0.20;;;;;;;5.04;63.35;97682.88;6184197;23;20341;-68
2021/09/12 02:01:36;;;;;;;0.30;0.30;;;;;;;5.06;63.14;97673.44;6182241;23;20079;-68
2021/09/12 02:04:07;;;;;;;0.30;0.30;;;;;;;5.08;63.18;97667.78;6182139;23;20068;-67
2021/09/12 02:06:36;;;;;;;0.13;0.13;;;;;;;5.11;63.27;97672.75;6182024;23;20398;-66
2021/09/12 02:09:05;;;;;;;0.43;0.43;;;;;;;5.11;63.29;97667.31;6182658;23;20021;-67
2021/09/12 02:11:33;;;;;;;0.30;0.30;;;;;;;5.17;63.33;97674.56;6158605;23;20017;-67
2021/09/12 02:14:01;;;;;;;0.20;0.20;;;;;;;5.19;63.32;97664.25;6183091;23;20013;-67
2021/09/12 02:16:28;;;;;;;0.20;0.20;;;;;;;5.23;63.21;97667.38;6185024;23;20013;-67
2021/09/12 02:18:56;;;;;;;0.20;0.20;;;;;;;5.29;63.19;97671.06;6183366;23;20518;-66
2021/09/12 02:21:26;;;;;;;0.20;0.20;;;;;;;5.38;63.07;97667.78;6183087;23;20099;-67
2021/09/12 02:23:55;;;;;;;0.22;0.22;;;;;;;5.46;63.02;97663.91;6183141;23;20041;-66
2021/09/12 02:26:24;;;;;;;0.15;0.15;;;;;;;5.53;62.97;97664.66;6182989;23;20032;-67
2021/09/12 02:28:54;;;;;;;0.10;0.10;;;;;;;5.62;62.79;97662.44;6182216;23;20433;-67
2021/09/12 02:31:23;;;;;;;0.20;0.20;;;;;;;5.74;62.66;97660.59;6182987;23;20362;-67
2021/09/12 02:33:54;;;;;;;0.20;0.20;;;;;;;5.83;62.47;97654.81;6182578;23;20009;-68
2021/09/12 02:36:24;;;;;;;0.20;0.20;;;;;;;5.87;62.60;97661.47;6182804;23;20016;-67
2021/09/12 02:38:52;;;;;;;0.20;0.20;;;;;;;5.91;62.54;97651.75;6182843;23;20017;-67
2021/09/12 02:41:19;;;;;;;0.20;0.20;;;;;;;5.94;62.64;97656.75;6183230;23;20015;-68
2021/09/12 02:43:47;;;;;;;0.20;0.20;;;;;;;5.99;62.57;97651.44;6182550;23;20013;-68
2021/09/12 02:46:16;;;;;;;0.20;0.20;;;;;;;6.06;62.55;97656.81;6182799;23;20013;-67
2021/09/12 02:48:42;;;;;;;0.20;0.20;;;;;;;6.10;62.45;97658.00;6182538;23;20017;-77
2021/09/12 02:51:11;;;;;;;0.60;0.40;;;;;;;6.17;62.41;97657.88;6182948;23;20434;-67
2021/09/12 02:53:38;;;;;;;0.10;0.10;;;;;;;6.22;62.26;97667.00;6158025;23;20012;-68
2021/09/12 02:56:06;;;;;;;1.02;0.95;;;;;;;6.35;62.21;97656.97;6157873;23;20009;-65
2021/09/12 02:58:34;;;;;;;0.52;0.40;;;;;;;6.43;62.10;97649.28;6182492;23;20087;-67
2021/09/12 03:01:03;;;;;;;0.30;0.30;;;;;;;6.48;62.02;97660.28;6157577;23;20108;-68
2021/09/12 03:03:30;;;;;;;0.35;0.35;;;;;;;6.52;61.99;97660.63;6182525;23;20009;-65
2021/09/12 03:06:00;;;;;;;0.10;0.10;;;;;;;6.50;62.20;97660.03;6157697;23;20016;-66
2021/09/12 03:08:28;;;;;;;0.20;0.20;;;;;;;6.45;62.33;97657.22;6182683;23;20115;-66
2021/09/12 03:10:58;;;;;;;0.65;0.57;;;;;;;6.40;62.57;97659.81;6182620;23;20413;-64
2021/09/12 03:13:26;;;;;;;0.22;0.22;;;;;;;6.36;62.72;97659.47;6182455;23;20438;-64
2021/09/12 03:15:55;;;;;;;0.28;0.28;;;;;;;6.37;62.72;97660.28;6182493;23;20017;-69
2021/09/12 03:18:22;;;;;;;1.00;0.52;;;;;;;6.36;62.74;97659.47;6157466;23;20016;-67
2021/09/12 03:20:50;;;;;;;0.35;0.35;;;;;;;6.42;62.67;97652.19;6157485;23;20013;-68
2021/09/12 03:23:17;;;;;;;0.20;0.20;;;;;;;6.44;62.67;97663.72;6182374;23;20013;-66
2021/09/12 03:25:46;;;;;;;0.20;0.20;;;;;;;6.47;62.58;97657.78;6158065;23;20009;-67
2021/09/12 03:28:14;;;;;;;0.20;0.20;;;;;;;6.51;62.50;97653.53;6182016;23;20013;-67
2021/09/12 03:30:42;;;;;;;0.20;0.20;;;;;;;6.56;62.38;97656.38;6182243;23;20020;-68
2021/09/12 03:33:14;;;;;;;0.28;0.28;;;;;;;6.67;62.13;97654.72;6182240;23;20028;-67
2021/09/12 03:35:41;;;;;;;0.20;0.20;;;;;;;6.88;61.75;97658.72;6157720;23;20469;-70
2021/09/12 03:38:08;;;;;;;0.20;0.20;;;;;;;7.18;61.11;97646.78;6157441;23;20088;-67
2021/09/12 03:40:36;;;;;;;0.20;0.20;;;;;;;7.47;60.43;97663.22;6157368;23;20402;-67
2021/09/12 03:43:03;;;;;;;0.30;0.30;;;;;;;7.75;59.81;97662.38;6182016;23;20095;-65
2021/09/12 03:45:30;;;;;;;0.20;0.20;;;;;;;7.83;59.98;97662.00;6182217;23;20442;-66
2021/09/12 03:47:59;;;;;;;0.30;0.30;;;;;;;7.94;59.99;97673.09;6157330;23;20028;-64
2021/09/12 03:50:27;;;;;;;0.30;0.30;;;;;;;8.02;59.72;97669.97;6179061;23;20009;-64
2021/09/12 03:52:57;;;;;;;0.20;0.20;;;;;;;8.00;59.87;97659.28;6182383;23;20017;-71
2021/09/12 03:55:23;;;;;;;0.22;0.22;;;;;;;7.95;60.18;97656.47;6183086;23;20009;-71
2021/09/12 03:57:50;;;;;;;0.30;0.30;;;;;;;7.95;60.53;97658.34;6158266;23;20035;-67
2021/09/12 04:00:17;;;;;;;0.10;0.10;;;;;;;8.05;60.39;97650.31;6178180;23;20025;-68
2021/09/12 04:02:45;;;;;;;0.20;0.20;;;;;;;8.24;60.14;97648.19;6179493;23;20473;-68
2021/09/12 04:05:13;;;;;;;0.50;0.50;;;;;;;8.36;59.94;97657.16;6179365;23;20017;-64
2021/09/12 04:07:41;;;;;;;0.30;0.30;;;;;;;8.47;59.66;97663.63;6130177;23;20021;-67
2021/09/12 04:10:09;;;;;;;0.30;0.30;;;;;;;8.52;59.52;97671.09;6157200;23;20009;-65
2021/09/12 04:12:38;;;;;;;2.70;0.50;;;;;;;8.49;59.96;97674.31;6153999;23;20009;-66
2021/09/12 04:15:06;;;;;;;0.20;0.20;;;;;;;8.37;60.33;97675.19;6179504;23;20040;-66
2021/09/12 04:17:32;;;;;;;0.45;0.45;;;;;;;8.22;60.43;97683.16;6179174;23;20048;-67
2021/09/12 04:20:00;;;;;;;0.20;0.20;;;;;;;8.11;60.93;97673.13;6154206;23;20061;-64
2021/09/12 04:22:27;;;;;;;0.13;0.13;;;;;;;8.01;61.16;97679.22;6129375;23;20454;-66
2021/09/12 04:24:55;;;;;;;0.20;0.20;;;;;;;7.94;61.49;97665.72;6129885;23;20020;-66
2021/09/12 04:27:23;;;;;;;0.20;0.20;;;;;;;7.98;61.29;97668.78;6129588;23;20040;-67
2021/09/12 04:29:50;;;;;;;0.20;0.20;;;;;;;8.01;61.23;97668.28;6156532;23;20454;-66
2021/09/12 04:32:18;;;;;;;0.32;0.32;;;;;;;8.06;60.94;97655.53;6129918;23;20020;-65
2021/09/12 04:34:47;;;;;;;0.20;0.20;;;;;;;8.18;60.65;97654.66;6156207;23;20013;-67
2021/09/12 04:37:14;;;;;;;0.57;0.57;;;;;;;8.24;60.57;97649.03;6179473;23;20024;-65
2021/09/12 04:39:41;;;;;;;0.30;0.30;;;;;;;8.23;60.57;97650.09;6155980;23;20431;-66
2021/09/12 04:42:10;;;;;;;0.10;0.10;;;;;;;8.20;60.83;97652.47;6179124;23;20486;-68
2021/09/12 04:44:37;;;;;;;0.20;0.20;;;;;;;8.17;60.97;97656.56;6178892;23;20049;-67
2021/09/12 04:47:06;;;;;;;0.13;0.13;;;;;;;8.21;60.74;97654.97;6178845;23;20018;-66
2021/09/12 04:49:33;;;;;;;0.22;0.22;;;;;;;8.35;60.44;97650.03;6179437;23;20014;-65
2021/09/12 04:52:02;;;;;;;0.32;0.32;;;;;;;8.33;60.64;97651.34;6179174;23;20508;-71
2021/09/12 04:54:28;;;;;;;0.10;0.10;;;;;;;8.23;60.81;97654.75;6154307;23;20323;-68
2021/09/12 04:56:57;;;;;;;0.10;0.10;;;;;;;8.10;61.25;97657.78;6179012;23;20041;-68
2021/09/12 04:59:26;;;;;;;0.43;0.35;;;;;;;8.06;61.39;97658.28;6178526;23;20023;-66
2021/09/12 05:01:54;;;;;;;0.40;0.40;;;;;;;8.10;61.31;97653.16;6178934;23;20104;-70
2021/09/12 05:04:22;;;;;;;0.10;0.10;;;;;;;8.07;61.25;97659.94;6179059;23;20112;-65
2021/09/12 05:06:50;;;;;;;0.40;0.40;;;;;;;8.05;61.39;97664.00;6178927;23;20416;-68
2021/09/12 05:09:23;;;;;;;0.40;0.40;;;;;;;8.16;61.14;97659.56;6178949;23;20013;-66
2021/09/12 05:11:51;;;;;;;0.20;0.20;;;;;;;8.17;61.19;97663.91;6179217;23;20060;-67
2021/09/12 05:14:19;;;;;;;0.68;0.55;;;;;;;8.14;61.14;97665.28;6178858;23;20013;-68
2021/09/12 05:16:50;;;;;;;0.35;0.35;;;;;;;8.08;61.45;97655.28;6178638;23;20006;-70
2021/09/12 05:19:17;;;;;;;0.40;0.40;;;;;;;8.12;61.52;97661.94;6177856;23;20021;-68
2021/09/12 05:21:46;;;;;;;0.25;0.25;;;;;;;8.17;61.33;97655.72;6128191;23;20014;-68
2021/09/12 05:24:14;;;;;;;0.80;0.80;;;;;;;8.14;61.66;97667.16;6177496;23;20018;-69
2021/09/12 05:26:42;;;;;;;1.60;0.77;;;;;;;7.99;62.03;97668.53;6152753;23;20013;-67
2021/09/12 05:29:09;;;;;;;0.25;0.25;;;;;;;7.78;62.54;97659.16;6177468;23;20033;-70
2021/09/12 05:31:35;;;;;;;0.30;0.30;;;;;;;7.58;62.83;97667.78;6154466;23;20048;-68
2021/09/12 05:34:02;;;;;;;0.73;0.52;;;;;;;7.50;62.97;97671.72;6177603;23;20017;-67
2021/09/12 05:36:30;;;;;;;0.30;0.30;;;;;;;7.53;62.85;97667.69;6128042;23;20013;-67
2021/09/12 05:38:59;;;;;;;0.70;0.70;;;;;;;7.63;62.75;97662.44;6177181;23;20013;-66
2021/09/12 05:41:29;;;;;;;0.30;0.30;;;;;;;7.88;61.97;97655.78;6177118;23;20014;-67
2021/09/12 05:43:56;;;;;;;0.10;0.10;;;;;;;8.11;61.30;97662.19;6177197;23;20015;-66
2021/09/12 05:46:24;;;;;;;0.35;0.35;;;;;;;8.28;61.08;97659.47;6127907;23;20018;-65
2021/09/12 05:48:53;;;;;;;0.77;0.77;;;;;;;8.33;60.91;97674.06;6177248;23;20028;-67
2021/09/12 05:51:23;;;;;;;0.88;0.85;;;;;;;8.34;61.20;97666.69;6152305;23;20028;-67
2021/09/12 05:53:52;;;;;;;1.00;0.57;;;;;;;8.32;61.27;97666.94;6176780;23;20097;-66
2021/09/12 05:56:20;;;;;;;0.75;0.68;;;;;;;8.25;61.29;97661.59;6177133;23;20104;-67
2021/09/12 05:58:48;;;;;;;0.20;0.20;;;;;;;8.19;61.67;97670.00;6127382;23;20032;-65
2021/09/12 06:01:16;;;;;;;0.63;0.63;;;;;;;8.12;61.73;97678.34;6171658;23;20071;-66
2021/09/12 06:03:45;;;;;;;1.67;0.65;;;;;;;8.10;61.88;97683.25;6179299;23;20358;-65
2021/09/12 06:06:13;;;;;;;0.30;0.30;;;;;;;8.03;61.97;97677.91;6178767;23;20017;-65
2021/09/12 06:08:43;;;;;;;0.25;0.25;;;;;;;7.93;62.11;97682.38;6178904;23;20354;-65
2021/09/12 06:11:14;;;;;;;0.30;0.30;;;;;;;7.81;62.53;97671.50;6179390;23;20047;-65
2021/09/12 06:13:43;;;;;;;0.73;0.70;;;;;;;7.70;62.71;97675.97;6174450;23;20033;-65
2021/09/12 06:16:10;;;;;;;0.40;0.40;;;;;;;7.69;62.50;97680.56;6180199;23;20009;-65
2021/09/12 06:18:37;;;;;;;0.28;0.28;;;;;;;7.77;62.42;97670.31;6178323;23;20090;-64
2021/09/12 06:21:06;;;;;;;0.63;0.30;;;;;;;7.88;62.14;97680.38;6177361;23;20091;-64
2021/09/12 06:23:34;;;;;;;0.20;0.20;;;;;;;7.92;62.13;97681.56;6180786;23;20016;-66
2021/09/12 06:26:01;;;;;;;2.75;0.50;;;;;;;7.94;61.99;97684.03;6180473;23;20034;-64
2021/09/12 06:28:30;;;;;;;0.55;0.50;;;;;;;7.94;61.96;97684.03;6178413;23;20426;-65
2021/09/12 06:30:56;;;;;;;0.30;0.30;;;;;;;7.89;62.14;97682.88;6153851;23;20013;-64
2021/09/12 06:33:25;;;;;;;0.20;0.20;;;;;;;7.85;62.16;97689.91;6180425;23;20019;-64
2021/09/12 06:35:54;;;;;;;0.20;0.20;;;;;;;7.78;62.07;97680.19;6178808;23;20104;-65
2021/09/12 06:38:25;;;;;;;0.20;0.20;;;;;;;7.74;62.28;97687.22;6178569;23;20124;-67
2021/09/12 06:40:52;;;;;;;0.20;0.20;;;;;;;7.77;62.22;97684.00;6178807;23;20036;-64
2021/09/12 06:43:22;;;;;;;0.32;0.32;;;;;;;7.82;62.07;97705.97;6154089;23;20037;-64
2021/09/12 06:45:49;;;;;;;0.20;0.20;;;;;;;7.85;61.84;97703.56;6178563;23;20009;-64
2021/09/12 06:48:18;;;;;;;0.20;0.20;;;;;;;7.91;61.76;97693.56;6178475;23;20084;-64
2021/09/12 06:50:45;;;;;;;0.20;0.20;;;;;;;8.03;61.26;97697.03;6178912;23;20148;-64
2021/09/12 06:53:14;;;;;;;0.28;0.28;;;;;;;8.05;61.34;97689.44;6153943;23;20108;-65
2021/09/12 06:55:42;;;;;;;0.20;0.20;;;;;;;8.00;61.53;97697.53;6178641;23;20149;-66
2021/09/12 06:58:12;;;;;;;0.30;0.30;;;;;;;7.94;61.50;97692.25;6153206;23;20100;-66
2021/09/12 07:00:41;;;;;;;0.30;0.30;;;;;;;7.87;61.73;97706.03;6178754;23;20109;-64
2021/09/12 07:03:10;;;;;;;0.35;0.35;;;;;;;7.86;61.73;97707.09;6178344;23;20140;-66
2021/09/12 07:05:38;;;;;;;0.30;0.30;;;;;;;7.88;61.69;97700.34;6177858;23;20120;-67
2021/09/12 07:08:06;;;;;;;0.20;0.20;;;;;;;7.91;61.60;97711.88;6176507;23;20091;-66
2021/09/12 07:10:35;;;;;;;0.20;0.20;;;;;;;7.93;61.42;97705.06;6155202;23;20469;-68
2021/09/12 07:13:06;;;;;;;0.30;0.30;;;;;;;7.97;61.41;97708.97;6180014;23;20091;-67
2021/09/12 07:15:34;;;;;;;0.55;0.55;;;;;;;7.97;61.38;97719.91;6180407;23;20013;-67
2021/09/12 07:18:02;;;;;;;0.45;0.45;;;;;;;8.00;61.19;97708.47;6180575;23;20453;-66
2021/09/12 07:20:30;;;;;;;0.32;0.32;;;;;;;8.21;61.07;97714.31;6155729;23;20013;-64
2021/09/12 07:22:57;;;;;;;0.68;0.68;;;;;;;8.49;60.31;97718.91;6182571;23;20016;-64
2021/09/12 07:25:27;;;;;;;0.52;0.52;;;;;;;8.57;60.13;97714.97;6155460;23;20013;-65
2021/09/12 07:27:54;;;;;;;0.22;0.22;;;;;;;8.54;60.28;97712.72;6179671;23;20013;-66
2021/09/12 07:30:22;;;;;;;0.82;0.52;;;;;;;8.47;60.60;97723.81;6155200;23;20425;-64
2021/09/12 07:32:49;;;;;;;0.47;0.47;;;;;;;8.42;60.74;97724.53;6180967;23;20020;-66
2021/09/12 07:35:18;;;;;;;0.77;0.77;;;;;;;8.44;60.86;97721.59;6155353;23;20036;-67
2021/09/12 07:37:49;;;;;;;0.40;0.40;;;;;;;8.43;60.87;97730.81;6180338;23;20016;-65
2021/09/12 07:40:18;;;;;;;0.70;0.35;;;;;;;8.47;60.94;97723.81;6180470;23;20012;-65
2021/09/12 07:42:47;;;;;;;0.20;0.20;;;;;;;8.53;60.78;97733.75;6179218;23;20024;-64
2021/09/12 07:45:14;;;;;;;0.30;0.30;;;;;;;8.61;60.56;97734.44;6181975;23;20470;-64
2021/09/12 07:47:42;;;;;;;1.45;0.57;;;;;;;8.65;60.33;97741.06;6178506;23;20017;-65
2021/09/12 07:50:08;;;;;;;0.73;0.73;;;;;;;8.68;60.27;97749.59;6181048;23;20020;-64
2021/09/12 07:52:36;;;;;;;0.45;0.45;;;;;;;8.67;60.36;97731.53;6178967;23;20017;-65
2021/09/12 07:55:04;;;;;;;2.63;0.40;;;;;;;8.86;59.84;97734.00;6179226;23;20013;-64
2021/09/12 07:57:32;;;;;;;0.20;0.20;;;;;;;9.22;59.14;97734.53;6177582;23;20100;-68
2021/09/12 07:59:59;;;;;;;0.30;0.30;;;;;;;9.61;58.43;97727.13;6179066;23;20020;-63
2021/09/12 08:02:28;;;;;;;2.00;1.15;;;;;;;9.92;57.82;97730.22;6178917;23;20028;-65
2021/09/12 08:04:56;;;;;;;0.13;0.13;;;;;;;10.08;57.32;97727.63;6154368;23;20013;-65
2021/09/12 08:07:24;;;;;;;0.50;0.50;;;;;;;10.23;57.36;97729.69;6178808;23;20107;-65
2021/09/12 08:09:51;;;;;;;0.43;0.43;;;;;;;10.32;57.30;97726.22;6179471;23;20095;-64
2021/09/12 08:12:19;;;;;;;0.20;0.20;;;;;;;10.51;56.95;97728.59;6153654;23;20100;-67
2021/09/12 08:14:45;;;;;;;0.68;0.68;;;;;;;10.67;56.56;97732.31;6154225;23;20446;-64
2021/09/12 08:17:14;;;;;;;0.20;0.20;;;;;;;10.75;56.56;97734.59;6178585;23;20017;-64
2021/09/12 08:19:41;;;;;;;0.45;0.45;;;;;;;10.76;56.77;97732.66;6178954;23;20012;-64
2021/09/12 08:22:09;;;;;;;0.40;0.40;;;;;;;10.79;56.86;97734.88;6179329;23;20528;-65
2021/09/12 08:24:39;;;;;;;0.40;0.40;;;;;;;10.82;56.89;97746.19;6179035;23;20009;-65
2021/09/12 08:27:09;;;;;;;0.88;0.88;;;;;;;10.94;56.38;97737.75;6178435;23;20013;-66
2021/09/12 08:29:37;;;;;;;0.75;0.75;;;;;;;11.10;56.47;97730.47;6178467;23;20466;-64
2021/09/12 08:32:43;;;;;;;1.08;0.98;;;;;;;11.17;56.07;97731.06;6178366;23;20155;-65
2021/09/12 08:35:09;;;;;;;;;;;;;;;11.24;56.22;97728.06;6175784;23;20009;-65
2021/09/12 08:37:35;;;;;;;0.43;0.43;;;;;;;11.38;55.84;97736.63;6178954;23;19927;-63
2021/09/12 08:40:02;;;;;;;0.28;0.28;;;;;;;11.26;56.02;97723.09;6180612;23;20056;-63
2021/09/12 08:42:29;;;;;;;0.43;0.40;;;;;;;11.12;56.42;97736.50;6181720;23;20033;-64
2021/09/12 08:44:55;;;;;;;1.85;0.85;;;;;;;11.09;56.56;97731.53;6182495;23;20013;-65
2021/09/12 08:47:21;;;;;;;0.85;0.80;;;;;;;11.05;56.75;97744.13;6182072;23;20454;-65
2021/09/12 08:49:47;;;;;;;0.45;0.32;;;;;;;10.95;56.77;97738.56;6182587;23;20063;-64
2021/09/12 08:52:14;;;;;;;0.20;0.20;;;;;;;10.93;56.96;97738.84;6182347;23;20060;-63
2021/09/12 08:54:40;;;;;;;0.30;0.30;;;;;;;10.91;56.82;97738.28;6182332;23;20036;-63
2021/09/12 08:57:06;;;;;;;0.15;0.15;;;;;;;10.97;56.44;97728.16;6182517;23;20019;-64
2021/09/12 08:59:34;;;;;;;0.85;0.85;;;;;;;11.06;56.23;97734.81;6180128;23;20411;-65
2021/09/12 09:02:02;;;;;;;0.52;0.45;;;;;;;11.21;56.17;97732.16;6182386;23;20470;-65
2021/09/12 09:04:33;;;;;;;0.40;0.40;;;;;;;11.37;55.66;97733.06;6181479;23;20016;-64
2021/09/12 09:07:06;;;;;;;0.47;0.40;;;;;;;11.48;55.29;97728.44;6180328;23;20033;-63
2021/09/12 09:09:42;;;;;;;0.30;0.20;;;;;;;11.53;55.27;97730.41;6181625;23;20019;-63
2021/09/12 09:12:28;;;;;;;0.73;0.50;;;;;;;11.45;55.39;97734.47;6181824;23;20033;-64
2021/09/12 09:15:15;;;;;;;0.20;0.20;;;;;;;11.43;55.50;97724.88;6182318;23;20013;-63
2021/09/12 09:17:47;;;;;;;0.10;0.10;;;;;;;11.35;55.22;97737.16;6182012;23;20013;-63
2021/09/12 09:20:18;;;;;;;0.30;0.30;;;;;;;11.30;55.49;97729.72;6182140;23;20472;-65
2021/09/12 09:22:49;;;;;;;1.13;0.65;;;;;;;11.43;55.03;97722.94;6182408;23;20036;-66
2021/09/12 09:25:19;;;;;;;0.60;0.50;;;;;;;11.42;54.90;97726.78;6182188;23;20455;-66
2021/09/12 09:28:01;;;;;;;0.35;0.35;;;;;;;11.19;55.36;97722.53;6181676;23;20017;-63
2021/09/12 09:30:34;;;;;;;0.32;0.32;;;;;;;11.02;56.02;97729.00;6182862;23;20017;-64
2021/09/12 09:33:27;;;;;;;0.50;0.50;;;;;;;10.94;55.74;97739.66;6181273;23;20012;-62
2021/09/12 09:36:05;;;;;;;0.30;0.30;;;;;;;11.03;55.77;97735.34;6183790;23;20063;-66
2021/09/12 09:38:32;;;;;;;0.50;0.50;;;;;;;11.09;55.40;97733.47;6183693;23;20009;-68
2021/09/12 09:41:14;;;;;;;0.82;0.55;;;;;;;10.98;55.60;97732.56;6183799;23;20036;-69
2021/09/12 09:43:49;;;;;;;0.22;0.22;;;;;;;10.86;55.87;97746.47;6183553;23;20254;-68
2021/09/12 09:46:35;;;;;;;0.30;0.30;;;;;;;10.69;56.01;97752.94;6183595;23;20399;-67
2021/09/12 09:49:20;;;;;;;0.22;0.22;;;;;;;10.47;56.33;97752.19;6181468;23;20394;-63
2021/09/12 09:51:48;;;;;;;0.30;0.30;;;;;;;10.10;57.23;97756.47;6181207;23;20013;-66
2021/09/12 09:54:15;;;;;;;0.22;0.22;;;;;;;9.87;57.56;97767.72;6181946;23;20009;-66
2021/09/12 09:56:45;;;;;;;0.20;0.20;;;;;;;9.76;57.61;97767.59;6182970;23;20019;-69
2021/09/12 09:59:14;;;;;;;0.10;0.10;;;;;;;9.72;57.57;97760.13;6183062;23;20017;-65
2021/09/12 10:01:41;;;;;;;0.20;0.20;;;;;;;9.64;57.21;97754.00;6181835;23;20464;-60
2021/09/12 10:04:07;;;;;;;0.40;0.40;;;;;;;9.50;57.63;97762.88;6182687;23;20456;-63
2021/09/12 10:06:33;;;;;;;0.73;0.43;;;;;;;9.33;57.44;97769.19;6182512;23;20013;-64
2021/09/12 10:08:59;;;;;;;0.32;0.32;;;;;;;9.21;57.52;97771.22;6183460;23;20043;-63
2021/09/12 10:11:26;;;;;;;0.35;0.35;;;;;;;9.16;57.45;97773.88;6181920;23;20342;-66
2021/09/12 10:13:54;;;;;;;0.38;0.38;;;;;;;9.21;57.13;97768.50;6182082;23;20323;-66
2021/09/12 10:16:21;;;;;;;0.10;0.10;;;;;;;9.38;56.50;97772.03;6181259;23;20009;-65
2021/09/12 10:18:47;;;;;;;0.63;0.22;;;;;;;9.56;56.24;97781.03;6182631;23;20016;-66
2021/09/12 10:21:26;;;;;;;0.20;0.20;;;;;;;9.77;55.44;97768.41;6183744;23;20013;-67
2021/09/12 10:24:07;;;;;;;0.55;0.38;;;;;;;9.90;55.07;97772.69;6180277;23;20013;-69
2021/09/12 10:26:42;;;;;;;0.22;0.22;;;;;;;10.08;54.60;97779.75;6180201;23;20012;-65
2021/09/12 10:29:57;;;;;;;0.45;0.45;;;;;;;10.39;53.82;97785.59;6179927;23;20013;-68
2021/09/12 10:32:36;;;;;;;1.40;0.67;;;;;;;10.66;53.57;97769.94;6170796;23;20051;-65
2021/09/12 10:35:15;;;;;;;0.10;0.10;;;;;;;10.90;52.76;97779.75;6180444;23;20354;-68
2021/09/12 10:38:13;;;;;;;0.17;0.17;;;;;;;11.04;52.94;97790.03;6180146;23;20389;-63
2021/09/12 10:40:48;;;;;;;0.30;0.30;;;;;;;11.11;52.66;97784.28;6180065;23;20024;-65
2021/09/12 10:43:25;;;;;;;0.57;0.57;;;;;;;11.13;52.58;97789.50;6181427;23;20008;-62
2021/09/12 10:46:07;;;;;;;0.30;0.30;;;;;;;11.03;52.88;97793.03;6181391;23;20009;-65
2021/09/12 10:48:39;;;;;;;0.38;0.38;;;;;;;11.04;52.83;97791.91;6180005;23;20017;-63
2021/09/12 10:51:12;;;;;;;0.40;0.40;;;;;;;11.09;52.83;97783.72;6180074;23;20063;-69
2021/09/12 10:53:44;;;;;;;0.20;0.20;;;;;;;11.15;52.68;97788.16;6180831;23;20130;-68
2021/09/12 10:56:13;;;;;;;0.20;0.20;;;;;;;11.14;52.51;97789.25;6181048;23;20012;-69
2021/09/12 10:58:39;;;;;;;0.25;0.25;;;;;;;11.08;52.79;97795.81;6179726;23;20017;-65
2021/09/12 11:01:08;;;;;;;0.43;0.43;;;;;;;11.02;52.85;97791.38;6181598;23;20545;-65
2021/09/12 11:03:34;;;;;;;0.20;0.20;;;;;;;11.01;53.23;97797.94;6179922;23;20438;-65
2021/09/12 11:06:01;;;;;;;1.45;0.50;;;;;;;11.10;52.73;97792.78;6179664;23;20005;-64
2021/09/12 11:08:37;;;;;;;0.30;0.30;;;;;;;11.11;52.51;97788.97;6180503;23;20017;-65
2021/09/12 11:11:05;;;;;;;0.13;0.13;;;;;;;11.10;52.51;97793.63;6180240;23;20020;-63
2021/09/12 11:13:32;;;;;;;0.15;0.15;;;;;;;11.02;52.94;97788.63;6177747;23;20079;-66
2021/09/12 11:16:25;;;;;;;1.80;0.73;;;;;;;10.77;53.38;97795.56;6179817;23;20158;-66
2021/09/12 11:18:58;;;;;;;0.30;0.30;;;;;;;10.59;53.54;97790.47;6177872;23;20012;-67
2021/09/12 11:21:34;;;;;;;0.22;0.22;;;;;;;10.37;53.97;97816.03;6177091;23;20091;-67
2021/09/12 11:24:24;;;;;;;0.30;0.30;;;;;;;10.36;53.80;97810.81;6179753;23;20017;-63
2021/09/12 11:27:01;;;;;;;0.20;0.20;;;;;;;10.45;53.38;97815.59;6180515;23;20395;-61
2021/09/12 11:29:38;;;;;;;0.20;0.20;;;;;;;10.58;52.99;97813.50;6179155;23;20009;-63
2021/09/12 11:32:15;;;;;;;0.20;0.20;;;;;;;10.69;52.86;97813.34;6181963;23;20036;-65
2021/09/12 11:34:42;;;;;;;0.47;0.47;;;;;;;10.82;52.71;97805.75;6182423;23;20013;-64
2021/09/12 11:37:18;;;;;;;1.23;1.17;;;;;;;10.89;52.04;97797.31;6182773;23;20517;-63
2021/09/12 11:39:46;;;;;;;0.35;0.28;;;;;;;10.86;52.23;97796.75;6182563;23;20013;-64
2021/09/12 11:42:17;;;;;;;17.55;0.68;;;;;;;10.77;52.36;97798.28;6182389;23;20525;-65
2021/09/12 11:44:48;;;;;;;0.30;0.30;;;;;;;10.73;52.54;97794.41;6182926;23;20017;-65
2021/09/12 11:47:16;;;;;;;0.20;0.20;;;;;;;10.78;52.42;97794.47;6182464;23;20009;-65
2021/09/12 11:49:44;;;;;;;0.40;0.40;;;;;;;10.98;51.93;97817.69;6181958;23;20009;-62